sensor_id;sensor_type;location;lat;lon;timestamp;P1;durP1;ratioP1;P2;durP2;ratioP2
29362;SDS011;16349;53.672;10.014;2023-02-01T00:02:17;19.17;;;3.43;;
29362;SDS011;16349;53.672;10.014;2023-02-01T00:04:45;24.90;;;4.87;;
29362;SDS011;16349;53.672;10.014;2023-02-01T00:07:12;18.07;;;3.30;;
29362;SDS011;16349;53.672;10.014;2023-02-01T00:09:38;22.17;;;3.73;;
29362;SDS011;16349;53.672;10.014;2023-02-01T00:12:05;17.33;;;2.80;;
29362;SDS011;16349;53.672;10.014;2023-02-01T00:14:32;18.00;;;3.03;;
29362;SDS011;16349;53.672;10.014;2023-02-01T00:17:03;16.30;;;3.03;;
29362;SDS011;16349;53.672;10.014;2023-02-01T00:19:31;22.60;;;4.13;;
29362;SDS011;16349;53.672;10.014;2023-02-01T00:22:00;18.57;;;3.60;;
29362;SDS011;16349;53.672;10.014;2023-02-01T00:24:28;28.43;;;4.47;;
29362;SDS011;16349;53.672;10.014;2023-02-01T00:26:55;19.30;;;3.60;;
29362;SDS011;16349;53.672;10.014;2023-02-01T00:29:22;20.63;;;3.60;;
29362;SDS011;16349;53.672;10.014;2023-02-01T00:31:49;29.60;;;5.33;;
29362;SDS011;16349;53.672;10.014;2023-02-01T00:34:17;19.03;;;4.30;;
29362;SDS011;16349;53.672;10.014;2023-02-01T00:36:45;21.47;;;4.10;;
29362;SDS011;16349;53.672;10.014;2023-02-01T00:39:13;18.17;;;3.50;;
29362;SDS011;16349;53.672;10.014;2023-02-01T00:41:39;23.07;;;4.40;;
29362;SDS011;16349;53.672;10.014;2023-02-01T00:44:09;25.17;;;4.70;;
29362;SDS011;16349;53.672;10.014;2023-02-01T00:46:35;19.57;;;4.07;;
29362;SDS011;16349;53.672;10.014;2023-02-01T00:49:03;22.80;;;4.13;;
29362;SDS011;16349;53.672;10.014;2023-02-01T00:51:30;23.40;;;3.40;;
29362;SDS011;16349;53.672;10.014;2023-02-01T00:53:58;15.07;;;3.33;;
29362;SDS011;16349;53.672;10.014;2023-02-01T00:56:26;24.40;;;4.60;;
29362;SDS011;16349;53.672;10.014;2023-02-01T00:58:53;17.73;;;4.67;;
29362;SDS011;16349;53.672;10.014;2023-02-01T01:01:21;23.20;;;4.63;;
29362;SDS011;16349;53.672;10.014;2023-02-01T01:03:50;31.93;;;4.53;;
29362;SDS011;16349;53.672;10.014;2023-02-01T01:06:20;17.80;;;4.60;;
29362;SDS011;16349;53.672;10.014;2023-02-01T01:08:50;20.20;;;3.83;;
29362;SDS011;16349;53.672;10.014;2023-02-01T01:11:20;23.40;;;4.07;;
29362;SDS011;16349;53.672;10.014;2023-02-01T01:13:50;17.63;;;4.40;;
29362;SDS011;16349;53.672;10.014;2023-02-01T01:16:18;26.47;;;4.73;;
29362;SDS011;16349;53.672;10.014;2023-02-01T01:18:46;26.77;;;5.10;;
29362;SDS011;16349;53.672;10.014;2023-02-01T01:21:14;17.00;;;4.07;;
29362;SDS011;16349;53.672;10.014;2023-02-01T01:23:42;29.10;;;4.53;;
29362;SDS011;16349;53.672;10.014;2023-02-01T01:26:11;21.33;;;5.23;;
29362;SDS011;16349;53.672;10.014;2023-02-01T01:28:39;22.27;;;3.97;;
29362;SDS011;16349;53.672;10.014;2023-02-01T01:31:08;40.93;;;5.20;;
29362;SDS011;16349;53.672;10.014;2023-02-01T01:33:36;25.93;;;5.80;;
29362;SDS011;16349;53.672;10.014;2023-02-01T01:36:04;28.77;;;4.70;;
29362;SDS011;16349;53.672;10.014;2023-02-01T01:38:31;32.80;;;3.80;;
29362;SDS011;16349;53.672;10.014;2023-02-01T01:40:58;23.97;;;4.20;;
29362;SDS011;16349;53.672;10.014;2023-02-01T01:43:25;23.70;;;3.73;;
29362;SDS011;16349;53.672;10.014;2023-02-01T01:46:08;21.33;;;4.40;;
29362;SDS011;16349;53.672;10.014;2023-02-01T01:48:35;28.00;;;6.07;;
29362;SDS011;16349;53.672;10.014;2023-02-01T01:51:02;24.80;;;4.70;;
29362;SDS011;16349;53.672;10.014;2023-02-01T01:53:33;24.10;;;4.20;;
29362;SDS011;16349;53.672;10.014;2023-02-01T01:56:04;21.57;;;3.87;;
29362;SDS011;16349;53.672;10.014;2023-02-01T01:58:32;25.10;;;4.93;;
29362;SDS011;16349;53.672;10.014;2023-02-01T02:00:59;22.07;;;3.60;;
29362;SDS011;16349;53.672;10.014;2023-02-01T02:03:29;25.27;;;4.90;;
29362;SDS011;16349;53.672;10.014;2023-02-01T02:05:59;20.43;;;3.90;;
29362;SDS011;16349;53.672;10.014;2023-02-01T02:08:28;24.37;;;4.47;;
29362;SDS011;16349;53.672;10.014;2023-02-01T02:10:55;19.50;;;4.13;;
29362;SDS011;16349;53.672;10.014;2023-02-01T02:13:30;22.70;;;4.17;;
29362;SDS011;16349;53.672;10.014;2023-02-01T02:16:03;24.47;;;4.60;;
29362;SDS011;16349;53.672;10.014;2023-02-01T02:18:39;23.70;;;5.03;;
29362;SDS011;16349;53.672;10.014;2023-02-01T02:21:14;26.33;;;5.13;;
29362;SDS011;16349;53.672;10.014;2023-02-01T02:27:06;22.23;;;4.67;;
29362;SDS011;16349;53.672;10.014;2023-02-01T02:35:57;25.10;;;5.23;;
29362;SDS011;16349;53.672;10.014;2023-02-01T02:38:31;21.00;;;4.83;;
29362;SDS011;16349;53.672;10.014;2023-02-01T02:41:10;24.10;;;4.60;;
29362;SDS011;16349;53.672;10.014;2023-02-01T02:44:05;19.77;;;4.50;;
29362;SDS011;16349;53.672;10.014;2023-02-01T02:46:56;26.03;;;5.53;;
29362;SDS011;16349;53.672;10.014;2023-02-01T02:49:49;22.33;;;4.10;;
29362;SDS011;16349;53.672;10.014;2023-02-01T02:52:41;14.53;;;3.17;;
29362;SDS011;16349;53.672;10.014;2023-02-01T02:55:28;21.10;;;3.87;;
29362;SDS011;16349;53.672;10.014;2023-02-01T02:57:58;18.23;;;3.40;;
29362;SDS011;16349;53.672;10.014;2023-02-01T03:00:42;20.60;;;3.63;;
29362;SDS011;16349;53.672;10.014;2023-02-01T03:03:28;19.63;;;4.13;;
29362;SDS011;16349;53.672;10.014;2023-02-01T03:06:13;31.67;;;4.07;;
29362;SDS011;16349;53.672;10.014;2023-02-01T03:08:44;19.27;;;4.30;;
29362;SDS011;16349;53.672;10.014;2023-02-01T03:11:12;19.10;;;4.60;;
29362;SDS011;16349;53.672;10.014;2023-02-01T03:13:42;24.63;;;4.60;;
29362;SDS011;16349;53.672;10.014;2023-02-01T03:16:12;21.63;;;3.73;;
29362;SDS011;16349;53.672;10.014;2023-02-01T03:18:49;26.50;;;4.00;;
29362;SDS011;16349;53.672;10.014;2023-02-01T03:21:21;18.13;;;4.10;;
29362;SDS011;16349;53.672;10.014;2023-02-01T03:23:53;19.20;;;4.17;;
29362;SDS011;16349;53.672;10.014;2023-02-01T03:26:25;22.93;;;4.07;;
29362;SDS011;16349;53.672;10.014;2023-02-01T03:28:56;21.20;;;3.90;;
29362;SDS011;16349;53.672;10.014;2023-02-01T03:31:26;20.30;;;3.57;;
29362;SDS011;16349;53.672;10.014;2023-02-01T03:33:55;21.30;;;3.43;;
29362;SDS011;16349;53.672;10.014;2023-02-01T03:36:24;14.40;;;3.77;;
29362;SDS011;16349;53.672;10.014;2023-02-01T03:38:58;22.17;;;4.40;;
29362;SDS011;16349;53.672;10.014;2023-02-01T03:41:32;10.87;;;3.17;;
29362;SDS011;16349;53.672;10.014;2023-02-01T03:44:06;16.67;;;3.73;;
29362;SDS011;16349;53.672;10.014;2023-02-01T03:46:40;18.57;;;4.53;;
29362;SDS011;16349;53.672;10.014;2023-02-01T03:49:13;19.43;;;3.53;;
29362;SDS011;16349;53.672;10.014;2023-02-01T03:51:44;10.53;;;2.70;;
29362;SDS011;16349;53.672;10.014;2023-02-01T03:54:13;18.47;;;3.63;;
29362;SDS011;16349;53.672;10.014;2023-02-01T03:56:42;16.97;;;2.53;;
29362;SDS011;16349;53.672;10.014;2023-02-01T03:59:11;12.53;;;2.60;;
29362;SDS011;16349;53.672;10.014;2023-02-01T04:01:39;15.47;;;3.20;;
29362;SDS011;16349;53.672;10.014;2023-02-01T04:04:28;15.63;;;3.00;;
29362;SDS011;16349;53.672;10.014;2023-02-01T04:06:55;13.20;;;3.07;;
29362;SDS011;16349;53.672;10.014;2023-02-01T04:09:24;22.03;;;4.03;;
29362;SDS011;16349;53.672;10.014;2023-02-01T04:11:51;18.67;;;3.20;;
29362;SDS011;16349;53.672;10.014;2023-02-01T04:14:18;17.10;;;3.27;;
29362;SDS011;16349;53.672;10.014;2023-02-01T04:16:44;18.93;;;3.60;;
29362;SDS011;16349;53.672;10.014;2023-02-01T04:19:11;15.70;;;3.17;;
29362;SDS011;16349;53.672;10.014;2023-02-01T04:21:38;11.13;;;2.80;;
29362;SDS011;16349;53.672;10.014;2023-02-01T04:24:05;14.50;;;2.90;;
29362;SDS011;16349;53.672;10.014;2023-02-01T04:26:35;17.83;;;2.87;;
29362;SDS011;16349;53.672;10.014;2023-02-01T04:29:02;7.37;;;1.60;;
29362;SDS011;16349;53.672;10.014;2023-02-01T04:31:28;11.33;;;1.93;;
29362;SDS011;16349;53.672;10.014;2023-02-01T04:33:55;5.97;;;1.73;;
29362;SDS011;16349;53.672;10.014;2023-02-01T04:36:23;8.73;;;2.00;;
29362;SDS011;16349;53.672;10.014;2023-02-01T04:38:50;14.47;;;3.20;;
29362;SDS011;16349;53.672;10.014;2023-02-01T04:41:18;13.17;;;2.63;;
29362;SDS011;16349;53.672;10.014;2023-02-01T04:43:46;16.50;;;3.00;;
29362;SDS011;16349;53.672;10.014;2023-02-01T04:46:13;17.73;;;3.07;;
29362;SDS011;16349;53.672;10.014;2023-02-01T04:48:40;16.87;;;3.47;;
29362;SDS011;16349;53.672;10.014;2023-02-01T04:51:07;22.83;;;3.13;;
29362;SDS011;16349;53.672;10.014;2023-02-01T04:53:35;15.33;;;2.40;;
29362;SDS011;16349;53.672;10.014;2023-02-01T04:56:02;11.77;;;2.40;;
29362;SDS011;16349;53.672;10.014;2023-02-01T04:58:29;12.10;;;2.27;;
29362;SDS011;16349;53.672;10.014;2023-02-01T05:00:58;10.57;;;2.73;;
29362;SDS011;16349;53.672;10.014;2023-02-01T05:03:25;8.03;;;1.90;;
29362;SDS011;16349;53.672;10.014;2023-02-01T05:05:52;9.50;;;2.33;;
29362;SDS011;16349;53.672;10.014;2023-02-01T05:08:20;5.90;;;1.43;;
29362;SDS011;16349;53.672;10.014;2023-02-01T05:10:47;6.43;;;1.80;;
29362;SDS011;16349;53.672;10.014;2023-02-01T05:13:14;11.30;;;2.10;;
29362;SDS011;16349;53.672;10.014;2023-02-01T05:16:00;5.13;;;1.67;;
29362;SDS011;16349;53.672;10.014;2023-02-01T05:18:28;7.93;;;1.70;;
29362;SDS011;16349;53.672;10.014;2023-02-01T05:20:55;11.20;;;2.00;;
29362;SDS011;16349;53.672;10.014;2023-02-01T05:23:22;4.73;;;1.07;;
29362;SDS011;16349;53.672;10.014;2023-02-01T05:25:49;4.90;;;1.10;;
29362;SDS011;16349;53.672;10.014;2023-02-01T05:28:15;5.23;;;1.10;;
29362;SDS011;16349;53.672;10.014;2023-02-01T05:30:42;4.57;;;1.07;;
29362;SDS011;16349;53.672;10.014;2023-02-01T05:33:10;3.97;;;0.80;;
29362;SDS011;16349;53.672;10.014;2023-02-01T05:35:38;3.40;;;0.70;;
29362;SDS011;16349;53.672;10.014;2023-02-01T05:38:04;1.97;;;0.57;;
29362;SDS011;16349;53.672;10.014;2023-02-01T05:40:31;4.20;;;0.90;;
29362;SDS011;16349;53.672;10.014;2023-02-01T05:42:57;2.10;;;0.80;;
29362;SDS011;16349;53.672;10.014;2023-02-01T05:45:24;4.00;;;0.80;;
29362;SDS011;16349;53.672;10.014;2023-02-01T05:47:50;4.00;;;0.90;;
29362;SDS011;16349;53.672;10.014;2023-02-01T05:50:18;1.77;;;0.70;;
29362;SDS011;16349;53.672;10.014;2023-02-01T05:52:45;3.40;;;0.80;;
29362;SDS011;16349;53.672;10.014;2023-02-01T05:55:13;2.50;;;0.70;;
29362;SDS011;16349;53.672;10.014;2023-02-01T05:57:40;3.37;;;0.73;;
29362;SDS011;16349;53.672;10.014;2023-02-01T06:00:07;4.20;;;0.87;;
29362;SDS011;16349;53.672;10.014;2023-02-01T06:02:40;2.30;;;0.57;;
29362;SDS011;16349;53.672;10.014;2023-02-01T06:05:08;3.50;;;0.50;;
29362;SDS011;16349;53.672;10.014;2023-02-01T06:07:36;1.77;;;0.90;;
29362;SDS011;16349;53.672;10.014;2023-02-01T06:10:02;4.53;;;0.97;;
29362;SDS011;16349;53.672;10.014;2023-02-01T06:12:29;1.63;;;0.43;;
29362;SDS011;16349;53.672;10.014;2023-02-01T06:14:57;1.87;;;0.60;;
29362;SDS011;16349;53.672;10.014;2023-02-01T06:17:24;0.63;;;0.63;;
29362;SDS011;16349;53.672;10.014;2023-02-01T06:19:51;2.13;;;0.60;;
29362;SDS011;16349;53.672;10.014;2023-02-01T06:22:18;1.63;;;0.47;;
29362;SDS011;16349;53.672;10.014;2023-02-01T06:24:46;1.87;;;1.17;;
29362;SDS011;16349;53.672;10.014;2023-02-01T06:27:34;1.90;;;0.50;;
29362;SDS011;16349;53.672;10.014;2023-02-01T06:30:02;3.53;;;1.17;;
29362;SDS011;16349;53.672;10.014;2023-02-01T06:32:31;3.10;;;0.63;;
29362;SDS011;16349;53.672;10.014;2023-02-01T06:34:58;10.37;;;1.30;;
29362;SDS011;16349;53.672;10.014;2023-02-01T06:37:26;9.27;;;1.50;;
29362;SDS011;16349;53.672;10.014;2023-02-01T06:39:55;1.90;;;1.40;;
29362;SDS011;16349;53.672;10.014;2023-02-01T06:42:22;4.07;;;0.70;;
29362;SDS011;16349;53.672;10.014;2023-02-01T06:45:10;5.47;;;1.03;;
29362;SDS011;16349;53.672;10.014;2023-02-01T06:47:38;8.63;;;1.30;;
29362;SDS011;16349;53.672;10.014;2023-02-01T06:50:06;5.50;;;1.20;;
29362;SDS011;16349;53.672;10.014;2023-02-01T06:52:35;4.03;;;1.50;;
29362;SDS011;16349;53.672;10.014;2023-02-01T06:55:03;7.83;;;1.87;;
29362;SDS011;16349;53.672;10.014;2023-02-01T06:57:31;8.93;;;1.73;;
29362;SDS011;16349;53.672;10.014;2023-02-01T06:59:59;11.57;;;1.93;;
29362;SDS011;16349;53.672;10.014;2023-02-01T07:02:26;5.33;;;1.30;;
29362;SDS011;16349;53.672;10.014;2023-02-01T07:04:53;11.50;;;2.23;;
29362;SDS011;16349;53.672;10.014;2023-02-01T07:07:20;12.13;;;2.23;;
29362;SDS011;16349;53.672;10.014;2023-02-01T07:09:47;9.20;;;1.87;;
29362;SDS011;16349;53.672;10.014;2023-02-01T07:12:16;11.23;;;2.70;;
29362;SDS011;16349;53.672;10.014;2023-02-01T07:14:43;10.27;;;2.27;;
29362;SDS011;16349;53.672;10.014;2023-02-01T07:17:10;15.20;;;2.53;;
29362;SDS011;16349;53.672;10.014;2023-02-01T07:19:37;20.63;;;3.23;;
29362;SDS011;16349;53.672;10.014;2023-02-01T07:22:04;16.60;;;2.43;;
29362;SDS011;16349;53.672;10.014;2023-02-01T07:24:33;11.63;;;2.70;;
29362;SDS011;16349;53.672;10.014;2023-02-01T07:27:00;13.93;;;3.07;;
29362;SDS011;16349;53.672;10.014;2023-02-01T07:29:28;17.20;;;3.20;;
29362;SDS011;16349;53.672;10.014;2023-02-01T07:31:54;15.53;;;3.30;;
29362;SDS011;16349;53.672;10.014;2023-02-01T07:34:22;25.43;;;4.07;;
29362;SDS011;16349;53.672;10.014;2023-02-01T07:36:48;16.27;;;3.23;;
29362;SDS011;16349;53.672;10.014;2023-02-01T07:39:19;15.57;;;3.30;;
29362;SDS011;16349;53.672;10.014;2023-02-01T07:41:45;21.33;;;3.40;;
29362;SDS011;16349;53.672;10.014;2023-02-01T07:44:12;13.60;;;3.43;;
29362;SDS011;16349;53.672;10.014;2023-02-01T07:46:40;22.90;;;3.63;;
29362;SDS011;16349;53.672;10.014;2023-02-01T07:49:08;19.03;;;4.03;;
29362;SDS011;16349;53.672;10.014;2023-02-01T07:51:35;16.03;;;4.10;;
29362;SDS011;16349;53.672;10.014;2023-02-01T07:54:02;18.60;;;3.90;;
29362;SDS011;16349;53.672;10.014;2023-02-01T07:56:31;23.50;;;4.23;;
29362;SDS011;16349;53.672;10.014;2023-02-01T07:58:58;15.73;;;3.83;;
29362;SDS011;16349;53.672;10.014;2023-02-01T08:01:26;18.43;;;4.07;;
29362;SDS011;16349;53.672;10.014;2023-02-01T08:03:54;20.20;;;3.80;;
29362;SDS011;16349;53.672;10.014;2023-02-01T08:06:24;24.43;;;4.60;;
29362;SDS011;16349;53.672;10.014;2023-02-01T08:08:51;20.13;;;3.60;;
29362;SDS011;16349;53.672;10.014;2023-02-01T08:11:19;25.53;;;3.50;;
29362;SDS011;16349;53.672;10.014;2023-02-01T08:13:47;21.73;;;4.17;;
29362;SDS011;16349;53.672;10.014;2023-02-01T08:16:14;16.43;;;3.53;;
29362;SDS011;16349;53.672;10.014;2023-02-01T08:18:43;19.10;;;3.67;;
29362;SDS011;16349;53.672;10.014;2023-02-01T08:21:12;23.07;;;4.07;;
29362;SDS011;16349;53.672;10.014;2023-02-01T08:23:40;23.17;;;4.20;;
29362;SDS011;16349;53.672;10.014;2023-02-01T08:26:30;21.60;;;4.10;;
29362;SDS011;16349;53.672;10.014;2023-02-01T08:28:57;22.80;;;3.83;;
29362;SDS011;16349;53.672;10.014;2023-02-01T08:31:26;23.20;;;4.07;;
29362;SDS011;16349;53.672;10.014;2023-02-01T08:34:13;22.40;;;3.77;;
29362;SDS011;16349;53.672;10.014;2023-02-01T08:37:00;21.43;;;4.53;;
29362;SDS011;16349;53.672;10.014;2023-02-01T08:39:27;19.93;;;4.03;;
29362;SDS011;16349;53.672;10.014;2023-02-01T08:41:53;16.20;;;3.07;;
29362;SDS011;16349;53.672;10.014;2023-02-01T08:44:34;18.77;;;2.73;;
29362;SDS011;16349;53.672;10.014;2023-02-01T08:47:01;15.87;;;2.87;;
29362;SDS011;16349;53.672;10.014;2023-02-01T08:49:29;18.60;;;3.20;;
29362;SDS011;16349;53.672;10.014;2023-02-01T08:51:56;14.10;;;3.20;;
29362;SDS011;16349;53.672;10.014;2023-02-01T08:54:24;16.07;;;3.00;;
29362;SDS011;16349;53.672;10.014;2023-02-01T08:56:51;10.30;;;1.80;;
29362;SDS011;16349;53.672;10.014;2023-02-01T08:59:19;6.60;;;2.17;;
29362;SDS011;16349;53.672;10.014;2023-02-01T09:01:46;12.57;;;2.73;;
29362;SDS011;16349;53.672;10.014;2023-02-01T09:04:13;15.70;;;2.87;;
29362;SDS011;16349;53.672;10.014;2023-02-01T09:06:40;14.00;;;2.67;;
29362;SDS011;16349;53.672;10.014;2023-02-01T09:09:07;15.27;;;2.40;;
29362;SDS011;16349;53.672;10.014;2023-02-01T09:11:35;14.00;;;2.40;;
29362;SDS011;16349;53.672;10.014;2023-02-01T09:14:02;14.30;;;2.83;;
29362;SDS011;16349;53.672;10.014;2023-02-01T09:16:28;8.57;;;2.23;;
29362;SDS011;16349;53.672;10.014;2023-02-01T09:18:55;18.53;;;2.80;;
29362;SDS011;16349;53.672;10.014;2023-02-01T09:21:22;15.13;;;3.20;;
29362;SDS011;16349;53.672;10.014;2023-02-01T09:23:49;17.57;;;4.00;;
29362;SDS011;16349;53.672;10.014;2023-02-01T09:26:17;19.77;;;3.23;;
29362;SDS011;16349;53.672;10.014;2023-02-01T09:28:45;15.20;;;3.37;;
29362;SDS011;16349;53.672;10.014;2023-02-01T09:31:30;12.80;;;3.10;;
29362;SDS011;16349;53.672;10.014;2023-02-01T09:33:57;16.43;;;2.73;;
29362;SDS011;16349;53.672;10.014;2023-02-01T09:36:24;22.63;;;3.23;;
29362;SDS011;16349;53.672;10.014;2023-02-01T09:38:50;13.47;;;2.93;;
29362;SDS011;16349;53.672;10.014;2023-02-01T09:41:21;12.03;;;4.13;;
29362;SDS011;16349;53.672;10.014;2023-02-01T09:44:12;18.40;;;3.80;;
29362;SDS011;16349;53.672;10.014;2023-02-01T09:46:49;14.43;;;3.40;;
29362;SDS011;16349;53.672;10.014;2023-02-01T09:49:22;20.27;;;4.00;;
29362;SDS011;16349;53.672;10.014;2023-02-01T09:51:53;13.73;;;2.73;;
29362;SDS011;16349;53.672;10.014;2023-02-01T09:54:22;16.30;;;4.30;;
29362;SDS011;16349;53.672;10.014;2023-02-01T09:56:52;15.00;;;3.03;;
29362;SDS011;16349;53.672;10.014;2023-02-01T09:59:26;17.03;;;3.10;;
29362;SDS011;16349;53.672;10.014;2023-02-01T10:01:58;12.43;;;3.83;;
29362;SDS011;16349;53.672;10.014;2023-02-01T10:04:25;11.93;;;3.13;;
29362;SDS011;16349;53.672;10.014;2023-02-01T10:06:56;18.17;;;3.40;;
29362;SDS011;16349;53.672;10.014;2023-02-01T10:09:32;15.53;;;3.63;;
29362;SDS011;16349;53.672;10.014;2023-02-01T10:12:27;17.10;;;3.60;;
29362;SDS011;16349;53.672;10.014;2023-02-01T10:15:09;16.70;;;4.17;;
29362;SDS011;16349;53.672;10.014;2023-02-01T10:17:50;20.90;;;4.90;;
29362;SDS011;16349;53.672;10.014;2023-02-01T10:20:34;20.23;;;4.53;;
29362;SDS011;16349;53.672;10.014;2023-02-01T10:23:10;18.53;;;3.23;;
29362;SDS011;16349;53.672;10.014;2023-02-01T10:25:53;28.73;;;5.47;;
29362;SDS011;16349;53.672;10.014;2023-02-01T10:28:21;17.20;;;3.20;;
29362;SDS011;16349;53.672;10.014;2023-02-01T10:30:52;13.17;;;3.03;;
29362;SDS011;16349;53.672;10.014;2023-02-01T10:33:24;17.83;;;3.63;;
29362;SDS011;16349;53.672;10.014;2023-02-01T10:35:53;17.47;;;3.40;;
29362;SDS011;16349;53.672;10.014;2023-02-01T10:38:25;18.80;;;3.73;;
29362;SDS011;16349;53.672;10.014;2023-02-01T10:40:56;23.00;;;3.80;;
29362;SDS011;16349;53.672;10.014;2023-02-01T10:43:37;20.10;;;3.63;;
29362;SDS011;16349;53.672;10.014;2023-02-01T10:46:05;19.43;;;4.27;;
29362;SDS011;16349;53.672;10.014;2023-02-01T10:48:33;27.43;;;4.13;;
29362;SDS011;16349;53.672;10.014;2023-02-01T10:51:01;22.87;;;4.30;;
29362;SDS011;16349;53.672;10.014;2023-02-01T10:53:31;15.13;;;3.17;;
29362;SDS011;16349;53.672;10.014;2023-02-01T10:56:05;19.97;;;4.13;;
29362;SDS011;16349;53.672;10.014;2023-02-01T10:58:33;10.90;;;2.93;;
29362;SDS011;16349;53.672;10.014;2023-02-01T11:01:02;14.87;;;2.87;;
29362;SDS011;16349;53.672;10.014;2023-02-01T11:03:36;16.17;;;3.50;;
29362;SDS011;16349;53.672;10.014;2023-02-01T11:06:10;21.87;;;3.70;;
29362;SDS011;16349;53.672;10.014;2023-02-01T11:08:44;16.77;;;3.80;;
29362;SDS011;16349;53.672;10.014;2023-02-01T11:11:13;25.23;;;3.70;;
29362;SDS011;16349;53.672;10.014;2023-02-01T11:13:40;13.73;;;3.20;;
29362;SDS011;16349;53.672;10.014;2023-02-01T11:16:10;12.43;;;3.00;;
29362;SDS011;16349;53.672;10.014;2023-02-01T11:18:40;12.20;;;2.50;;
29362;SDS011;16349;53.672;10.014;2023-02-01T11:21:07;16.63;;;3.33;;
29362;SDS011;16349;53.672;10.014;2023-02-01T11:23:39;15.50;;;2.67;;
29362;SDS011;16349;53.672;10.014;2023-02-01T11:26:11;18.23;;;2.73;;
29362;SDS011;16349;53.672;10.014;2023-02-01T11:28:50;16.77;;;2.63;;
29362;SDS011;16349;53.672;10.014;2023-02-01T11:31:19;16.70;;;3.30;;
29362;SDS011;16349;53.672;10.014;2023-02-01T11:33:50;20.73;;;3.23;;
29362;SDS011;16349;53.672;10.014;2023-02-01T11:36:21;15.30;;;2.90;;
29362;SDS011;16349;53.672;10.014;2023-02-01T11:39:18;20.60;;;3.53;;
29362;SDS011;16349;53.672;10.014;2023-02-01T11:42:04;10.67;;;2.03;;
29362;SDS011;16349;53.672;10.014;2023-02-01T11:44:39;12.57;;;3.20;;
29362;SDS011;16349;53.672;10.014;2023-02-01T11:47:21;15.70;;;2.77;;
29362;SDS011;16349;53.672;10.014;2023-02-01T11:49:51;10.57;;;2.10;;
29362;SDS011;16349;53.672;10.014;2023-02-01T11:52:27;10.73;;;2.83;;
29362;SDS011;16349;53.672;10.014;2023-02-01T11:55:11;14.63;;;2.37;;
29362;SDS011;16349;53.672;10.014;2023-02-01T11:57:47;15.23;;;3.60;;
29362;SDS011;16349;53.672;10.014;2023-02-01T12:00:25;17.77;;;2.67;;
29362;SDS011;16349;53.672;10.014;2023-02-01T12:03:05;12.40;;;3.73;;
29362;SDS011;16349;53.672;10.014;2023-02-01T12:05:57;17.27;;;2.13;;
29362;SDS011;16349;53.672;10.014;2023-02-01T12:08:39;11.77;;;3.13;;
29362;SDS011;16349;53.672;10.014;2023-02-01T12:11:26;17.30;;;2.43;;
29362;SDS011;16349;53.672;10.014;2023-02-01T12:14:09;11.13;;;2.70;;
29362;SDS011;16349;53.672;10.014;2023-02-01T12:16:53;10.27;;;2.43;;
29362;SDS011;16349;53.672;10.014;2023-02-01T12:19:35;13.20;;;2.63;;
29362;SDS011;16349;53.672;10.014;2023-02-01T12:22:18;14.20;;;2.23;;
29362;SDS011;16349;53.672;10.014;2023-02-01T12:25:00;12.13;;;2.23;;
29362;SDS011;16349;53.672;10.014;2023-02-01T12:27:53;14.33;;;2.10;;
29362;SDS011;16349;53.672;10.014;2023-02-01T12:30:53;11.63;;;2.10;;
29362;SDS011;16349;53.672;10.014;2023-02-01T12:33:33;12.17;;;2.10;;
29362;SDS011;16349;53.672;10.014;2023-02-01T12:36:13;13.57;;;1.90;;
29362;SDS011;16349;53.672;10.014;2023-02-01T12:38:46;4.37;;;1.50;;
29362;SDS011;16349;53.672;10.014;2023-02-01T12:41:26;5.17;;;1.70;;
29362;SDS011;16349;53.672;10.014;2023-02-01T12:44:10;3.73;;;1.10;;
29362;SDS011;16349;53.672;10.014;2023-02-01T12:46:43;3.33;;;1.13;;
29362;SDS011;16349;53.672;10.014;2023-02-01T12:49:14;5.33;;;1.40;;
29362;SDS011;16349;53.672;10.014;2023-02-01T12:51:44;4.17;;;1.10;;
29362;SDS011;16349;53.672;10.014;2023-02-01T12:54:18;0.53;;;0.40;;
29362;SDS011;16349;53.672;10.014;2023-02-01T12:56:49;2.73;;;0.60;;
29362;SDS011;16349;53.672;10.014;2023-02-01T12:59:21;6.00;;;0.70;;
29362;SDS011;16349;53.672;10.014;2023-02-01T13:01:54;2.63;;;0.60;;
29362;SDS011;16349;53.672;10.014;2023-02-01T13:04:25;5.83;;;0.70;;
29362;SDS011;16349;53.672;10.014;2023-02-01T13:06:57;3.43;;;0.63;;
29362;SDS011;16349;53.672;10.014;2023-02-01T13:09:29;1.20;;;0.50;;
29362;SDS011;16349;53.672;10.014;2023-02-01T13:12:04;1.43;;;0.50;;
29362;SDS011;16349;53.672;10.014;2023-02-01T13:14:39;0.40;;;0.30;;
29362;SDS011;16349;53.672;10.014;2023-02-01T13:17:12;2.93;;;0.60;;
29362;SDS011;16349;53.672;10.014;2023-02-01T13:19:42;1.80;;;0.40;;
29362;SDS011;16349;53.672;10.014;2023-02-01T13:22:12;1.40;;;0.60;;
29362;SDS011;16349;53.672;10.014;2023-02-01T13:24:46;2.30;;;0.47;;
29362;SDS011;16349;53.672;10.014;2023-02-01T13:27:17;0.70;;;0.50;;
29362;SDS011;16349;53.672;10.014;2023-02-01T13:29:46;3.33;;;0.60;;
29362;SDS011;16349;53.672;10.014;2023-02-01T13:32:25;6.13;;;0.50;;
29362;SDS011;16349;53.672;10.014;2023-02-01T13:35:10;0.80;;;0.40;;
29362;SDS011;16349;53.672;10.014;2023-02-01T13:37:54;1.50;;;0.40;;
29362;SDS011;16349;53.672;10.014;2023-02-01T13:40:41;2.40;;;0.50;;
29362;SDS011;16349;53.672;10.014;2023-02-01T13:43:12;1.63;;;0.57;;
29362;SDS011;16349;53.672;10.014;2023-02-01T13:45:43;2.63;;;0.73;;
29362;SDS011;16349;53.672;10.014;2023-02-01T13:48:18;3.60;;;0.67;;
29362;SDS011;16349;53.672;10.014;2023-02-01T13:50:49;3.40;;;0.50;;
29362;SDS011;16349;53.672;10.014;2023-02-01T13:53:22;4.13;;;0.77;;
29362;SDS011;16349;53.672;10.014;2023-02-01T13:55:56;2.43;;;0.60;;
29362;SDS011;16349;53.672;10.014;2023-02-01T13:58:30;2.37;;;0.70;;
29362;SDS011;16349;53.672;10.014;2023-02-01T14:04:01;6.27;;;1.07;;
29362;SDS011;16349;53.672;10.014;2023-02-01T14:06:38;8.40;;;1.03;;
29362;SDS011;16349;53.672;10.014;2023-02-01T14:09:14;4.17;;;1.03;;
29362;SDS011;16349;53.672;10.014;2023-02-01T14:11:45;4.30;;;1.00;;
29362;SDS011;16349;53.672;10.014;2023-02-01T14:23:10;3.70;;;1.70;;
29362;SDS011;16349;53.672;10.014;2023-02-01T14:25:40;4.67;;;1.03;;
29362;SDS011;16349;53.672;10.014;2023-02-01T14:28:16;6.80;;;1.53;;
29362;SDS011;16349;53.672;10.014;2023-02-01T14:30:51;5.20;;;1.33;;
29362;SDS011;16349;53.672;10.014;2023-02-01T14:33:20;5.70;;;1.20;;
29362;SDS011;16349;53.672;10.014;2023-02-01T14:36:01;5.90;;;1.20;;
29362;SDS011;16349;53.672;10.014;2023-02-01T14:38:33;5.47;;;1.20;;
29362;SDS011;16349;53.672;10.014;2023-02-01T14:44:24;6.17;;;1.20;;
29362;SDS011;16349;53.672;10.014;2023-02-01T14:49:57;7.37;;;1.37;;
29362;SDS011;16349;53.672;10.014;2023-02-01T14:52:46;9.77;;;1.70;;
29362;SDS011;16349;53.672;10.014;2023-02-01T14:55:17;12.50;;;1.80;;
29362;SDS011;16349;53.672;10.014;2023-02-01T14:57:52;8.30;;;1.73;;
29362;SDS011;16349;53.672;10.014;2023-02-01T15:00:24;9.33;;;1.70;;
29362;SDS011;16349;53.672;10.014;2023-02-01T15:02:54;10.03;;;1.33;;
29362;SDS011;16349;53.672;10.014;2023-02-01T15:05:29;9.63;;;1.37;;
29362;SDS011;16349;53.672;10.014;2023-02-01T15:07:58;9.17;;;1.47;;
29362;SDS011;16349;53.672;10.014;2023-02-01T15:10:30;5.80;;;1.30;;
29362;SDS011;16349;53.672;10.014;2023-02-01T15:12:59;10.27;;;1.90;;
29362;SDS011;16349;53.672;10.014;2023-02-01T15:15:27;6.23;;;1.40;;
29362;SDS011;16349;53.672;10.014;2023-02-01T15:17:59;11.03;;;1.60;;
29362;SDS011;16349;53.672;10.014;2023-02-01T15:20:26;7.37;;;1.70;;